Time;durP1;ratioP1;P1;durP2;ratioP2;P2;SDS_P1;SDS_P2;PMS_P1;PMS_P2;Temp;Humidity;BMP_temperature;BMP_pressure;BME280_temperature;BME280_humidity;BME280_pressure;Samples;Min_cycle;Max_cycle;Signal;HPM_P1;HPM_P2
2023/11/26 00:00:41;;;;;;;;;;;0.20;58.50;;;;;;5076252;28;19932;-70
2023/11/26 00:03:07;;;;;;;;;;;0.30;59.10;;;;;;5095964;28;20003;-69
2023/11/26 00:05:33;;;;;;;;;;;0.30;59.50;;;;;;5094672;28;20376;-72
2023/11/26 00:07:59;;;;;;;;;;;0.30;59.10;;;;;;5075624;28;20395;-73
2023/11/26 00:10:24;;;;;;;;;;;0.30;59.50;;;;;;5056986;28;19932;-73
2023/11/26 00:12:52;;;;;;;;;;;0.30;60.30;;;;;;5057963;28;19948;-70
2023/11/26 00:15:18;;;;;;;;;;;0.20;60.00;;;;;;5090335;28;19920;-70
2023/11/26 00:17:44;;;;;;;;;;;0.20;60.10;;;;;;5061011;28;19920;-70
2023/11/26 00:20:10;;;;;;;;;;;0.10;60.10;;;;;;5094934;28;19920;-70
2023/11/26 00:22:36;;;;;;;;;;;0.10;60.40;;;;;;5060883;28;19922;-73
2023/11/26 00:25:02;;;;;;;;;;;0.00;60.70;;;;;;5057188;28;20026;-73
2023/11/26 00:27:28;;;;;;;;;;;0.00;60.70;;;;;;5068369;28;19916;-70
2023/11/26 00:29:54;;;;;;;;;;;0.00;60.70;;;;;;5075804;28;20405;-71
2023/11/26 00:32:20;;;;;;;;;;;0.10;60.60;;;;;;5092719;28;19973;-70
2023/11/26 00:34:46;;;;;;;;;;;0.10;60.60;;;;;;5077217;28;20015;-74
2023/11/26 00:37:12;;;;;;;;;;;0.10;60.80;;;;;;5077574;28;19916;-71
2023/11/26 00:39:38;;;;;;;;;;;0.20;60.70;;;;;;5077273;28;20003;-73
2023/11/26 00:42:04;;;;;;;;;;;0.20;60.80;;;;;;5093652;28;20274;-70
2023/11/26 00:44:30;;;;;;;;;;;0.20;60.00;;;;;;5094744;28;20015;-70
2023/11/26 00:46:56;;;;;;;;;;;0.30;60.40;;;;;;5076683;28;19920;-70
2023/11/26 00:49:22;;;;;;;;;;;0.30;60.40;;;;;;5058370;28;20368;-73
2023/11/26 00:51:48;;;;;;;;;;;0.30;60.40;;;;;;5059833;28;19956;-72
2023/11/26 00:54:14;;;;;;;;;;;0.40;60.60;;;;;;5076576;28;19920;-70
2023/11/26 00:56:40;;;;;;;;;;;0.40;60.60;;;;;;5060376;28;19927;-70
2023/11/26 00:59:06;;;;;;;;;;;0.30;60.40;;;;;;5093575;28;19962;-70
2023/11/26 01:01:32;;;;;;;;;;;0.40;60.70;;;;;;5074664;28;19928;-73
2023/11/26 01:03:58;;;;;;;;;;;0.40;59.80;;;;;;5072699;28;19916;-73
2023/11/26 01:06:23;;;;;;;;;;;0.50;60.40;;;;;;5058586;28;19988;-70
2023/11/26 01:08:49;;;;;;;;;;;0.50;60.40;;;;;;5076774;28;19999;-70
2023/11/26 01:11:15;;;;;;;;;;;0.60;60.40;;;;;;5076132;28;19951;-70
2023/11/26 01:13:41;;;;;;;;;;;0.60;60.50;;;;;;5093393;28;20343;-69
2023/11/26 01:16:09;;;;;;;;;;;0.60;60.40;;;;;;5059568;28;19970;-70
2023/11/26 01:18:38;;;;;;;;;;;0.60;59.50;;;;;;5058522;28;19970;-70
2023/11/26 01:21:04;;;;;;;;;;;0.60;60.00;;;;;;5088977;28;19928;-73
2023/11/26 01:23:30;;;;;;;;;;;0.60;59.80;;;;;;5076247;28;19959;-73
2023/11/26 01:25:55;;;;;;;;;;;0.50;60.00;;;;;;5094905;28;20022;-73
2023/11/26 01:28:22;;;;;;;;;;;0.50;60.10;;;;;;5094596;28;19924;-73
2023/11/26 01:30:48;;;;;;;;;;;0.50;60.00;;;;;;5092673;28;19924;-70
2023/11/26 01:33:14;;;;;;;;;;;0.50;59.60;;;;;;5093835;28;20297;-70
2023/11/26 01:35:40;;;;;;;;;;;0.60;59.40;;;;;;5066207;28;20015;-73
2023/11/26 01:38:06;;;;;;;;;;;0.50;59.50;;;;;;5092575;28;19930;-73
2023/11/26 01:40:51;;;;;;;;;;;0.60;59.40;;;;;;5074586;28;19924;-70
2023/11/26 01:43:21;;;;;;;;;;;0.60;59.10;;;;;;5075863;28;19917;-71
2023/11/26 01:45:47;;;;;;;;;;;0.60;59.10;;;;;;5076115;28;19924;-73
2023/11/26 01:48:13;;;;;;;;;;;0.50;59.40;;;;;;5092561;28;19941;-70
2023/11/26 01:50:39;;;;;;;;;;;0.40;59.80;;;;;;5074615;28;19924;-70
2023/11/26 01:53:05;;;;;;;;;;;0.40;60.20;;;;;;5092422;28;19916;-73
2023/11/26 01:55:31;;;;;;;;;;;0.30;60.50;;;;;;5092340;28;19927;-73
2023/11/26 01:57:57;;;;;;;;;;;0.20;60.70;;;;;;5075780;28;20393;-70
2023/11/26 02:00:23;;;;;;;;;;;0.20;60.80;;;;;;5075318;28;19959;-70
2023/11/26 02:02:49;;;;;;;;;;;0.20;60.90;;;;;;5074716;28;19920;-73
2023/11/26 02:05:15;;;;;;;;;;;0.10;60.80;;;;;;5092066;28;20425;-69
2023/11/26 02:07:41;;;;;;;;;;;0.10;60.30;;;;;;5059146;28;19916;-73
2023/11/26 02:10:08;;;;;;;;;;;0.00;60.70;;;;;;5074879;28;20023;-70
2023/11/26 02:12:34;;;;;;;;;;;-0.10;60.80;;;;;;5075148;28;19935;-69
2023/11/26 02:15:01;;;;;;;;;;;-0.10;60.50;;;;;;5092620;28;19924;-70
2023/11/26 02:17:27;;;;;;;;;;;-0.10;61.00;;;;;;5058277;28;19922;-70
2023/11/26 02:19:55;;;;;;;;;;;-0.20;61.10;;;;;;5071071;28;19925;-73
2023/11/26 02:22:21;;;;;;;;;;;-0.20;61.10;;;;;;5073012;28;20003;-73
2023/11/26 02:24:47;;;;;;;;;;;-0.20;61.40;;;;;;5058119;28;19924;-70
2023/11/26 02:27:14;;;;;;;;;;;-0.30;60.90;;;;;;5075465;28;19961;-70
2023/11/26 02:29:40;;;;;;;;;;;-0.30;61.40;;;;;;5075287;28;20424;-73
2023/11/26 02:32:19;;;;;;;;;;;-0.40;61.40;;;;;;5074107;28;19926;-70
2023/11/26 02:34:45;;;;;;;;;;;-0.40;61.60;;;;;;5070888;28;19967;-70
2023/11/26 02:37:11;;;;;;;;;;;-0.50;62.00;;;;;;5074028;28;19916;-71
2023/11/26 02:39:38;;;;;;;;;;;-0.50;62.30;;;;;;5073888;28;20231;-73
2023/11/26 02:42:04;;;;;;;;;;;-0.50;62.60;;;;;;5057918;28;19920;-73
2023/11/26 02:44:29;;;;;;;;;;;-0.60;62.30;;;;;;5075051;28;20006;-73
2023/11/26 02:46:56;;;;;;;;;;;-0.60;62.70;;;;;;5092273;28;19916;-70
2023/11/26 02:49:22;;;;;;;;;;;-0.70;62.90;;;;;;5092657;28;19993;-70
2023/11/26 02:51:48;;;;;;;;;;;-0.70;63.20;;;;;;5065759;28;20432;-72
2023/11/26 02:54:14;;;;;;;;;;;-0.70;63.10;;;;;;5088802;28;20010;-73
2023/11/26 02:56:58;;;;;;;;;;;-0.80;63.00;;;;;;5075205;28;19978;-73
2023/11/26 02:59:25;;;;;;;;;;;-0.80;62.90;;;;;;5074984;28;20428;-70
2023/11/26 03:01:55;;;;;;;;;;;-0.80;63.20;;;;;;5074457;28;20339;-70
2023/11/26 03:04:23;;;;;;;;;;;-0.80;62.50;;;;;;5073838;28;19916;-73
2023/11/26 03:06:49;;;;;;;;;;;-0.60;62.50;;;;;;5091569;28;19924;-73
2023/11/26 03:14:45;;;;;;;;;;;-0.50;61.80;;;;;;5076559;28;19951;-70
2023/11/26 03:17:29;;;;;;;;;;;-0.50;62.10;;;;;;5072798;28;19960;-73
2023/11/26 03:19:55;;;;;;;;;;;-0.40;61.80;;;;;;5074756;28;19970;-70
2023/11/26 03:22:21;;;;;;;;;;;-0.40;62.20;;;;;;5057388;28;19920;-73
2023/11/26 03:24:47;;;;;;;;;;;-0.40;61.90;;;;;;5092804;28;19928;-70
2023/11/26 03:27:13;;;;;;;;;;;-0.40;62.10;;;;;;5074313;28;20295;-70
2023/11/26 03:29:40;;;;;;;;;;;-0.40;62.00;;;;;;5074091;28;19930;-70
2023/11/26 03:32:07;;;;;;;;;;;-0.30;62.20;;;;;;5065772;28;19927;-73
2023/11/26 03:34:33;;;;;;;;;;;-0.30;62.30;;;;;;5071136;28;19924;-71
2023/11/26 03:36:58;;;;;;;;;;;-0.40;62.50;;;;;;5092761;28;20323;-73
2023/11/26 03:39:24;;;;;;;;;;;-0.50;62.70;;;;;;5074568;28;19930;-73
2023/11/26 03:41:50;;;;;;;;;;;-0.50;62.80;;;;;;5090825;28;20010;-70
2023/11/26 03:44:16;;;;;;;;;;;-0.60;63.00;;;;;;5092007;28;20106;-73
2023/11/26 03:46:42;;;;;;;;;;;-0.60;63.20;;;;;;5070474;28;19920;-72
2023/11/26 03:49:08;;;;;;;;;;;-0.60;63.40;;;;;;5071978;28;19970;-71
2023/11/26 03:51:34;;;;;;;;;;;-0.60;63.60;;;;;;5091878;28;19928;-73
2023/11/26 03:54:00;;;;;;;;;;;-0.60;63.70;;;;;;5074338;28;19921;-70
2023/11/26 03:56:26;;;;;;;;;;;-0.50;63.70;;;;;;5092618;28;20006;-71
2023/11/26 03:58:51;;;;;;;;;;;-0.50;63.70;;;;;;5073049;28;20511;-69
2023/11/26 04:01:17;;;;;;;;;;;-0.50;63.50;;;;;;5072415;28;20361;-72
2023/11/26 04:03:43;;;;;;;;;;;-0.40;63.40;;;;;;5075354;28;19927;-70
2023/11/26 04:06:09;;;;;;;;;;;-0.30;63.30;;;;;;5078197;28;19938;-70
2023/11/26 04:08:35;;;;;;;;;;;-0.30;63.10;;;;;;5078011;28;19923;-73
2023/11/26 04:11:01;;;;;;;;;;;-0.20;63.00;;;;;;5074987;28;19931;-73
2023/11/26 04:13:27;;;;;;;;;;;-0.20;62.80;;;;;;5095462;28;19924;-73
2023/11/26 04:15:58;;;;;;;;;;;-0.10;62.80;;;;;;5096378;28;19954;-73
2023/11/26 04:18:25;;;;;;;;;;;-0.10;62.60;;;;;;5096047;28;19924;-73
2023/11/26 04:20:51;;;;;;;;;;;-0.10;62.80;;;;;;5094300;28;19924;-70
2023/11/26 04:23:18;;;;;;;;;;;-0.10;62.70;;;;;;5077322;28;19916;-73
2023/11/26 04:25:44;;;;;;;;;;;0.00;62.50;;;;;;5077238;28;19920;-73
2023/11/26 04:28:11;;;;;;;;;;;0.00;62.40;;;;;;5076141;28;19931;-73
2023/11/26 04:30:37;;;;;;;;;;;0.00;62.50;;;;;;5059926;28;19970;-70
2023/11/26 04:33:03;;;;;;;;;;;0.00;62.90;;;;;;5095547;28;20536;-73
2023/11/26 04:35:29;;;;;;;;;;;0.00;63.30;;;;;;5077531;28;19924;-73
2023/11/26 04:37:56;;;;;;;;;;;0.00;63.50;;;;;;5094385;28;19943;-70
2023/11/26 04:40:22;;;;;;;;;;;-0.10;63.70;;;;;;5059575;28;19957;-70
2023/11/26 04:42:48;;;;;;;;;;;-0.10;64.00;;;;;;5076263;28;19916;-70
2023/11/26 04:45:14;;;;;;;;;;;-0.10;64.00;;;;;;5075181;28;19931;-70
2023/11/26 04:47:40;;;;;;;;;;;-0.10;64.60;;;;;;5095465;28;19920;-70
2023/11/26 04:50:07;;;;;;;;;;;0.00;63.30;;;;;;5076728;28;19972;-73
2023/11/26 04:52:33;;;;;;;;;;;0.00;63.20;;;;;;5060071;28;20475;-72
2023/11/26 04:54:58;;;;;;;;;;;0.00;63.30;;;;;;5094639;28;19924;-70
2023/11/26 04:57:24;;;;;;;;;;;0.00;63.40;;;;;;5094561;28;19926;-73
2023/11/26 04:59:52;;;;;;;;;;;0.00;63.70;;;;;;5088639;28;19930;-73
2023/11/26 05:02:18;;;;;;;;;;;-0.10;63.70;;;;;;5086939;28;19931;-70
2023/11/26 05:04:45;;;;;;;;;;;-0.10;63.70;;;;;;5076991;28;19950;-73
2023/11/26 05:07:11;;;;;;;;;;;-0.20;63.50;;;;;;5077027;28;19916;-73
2023/11/26 05:09:37;;;;;;;;;;;-0.20;63.20;;;;;;5094816;28;19924;-73
2023/11/26 05:12:03;;;;;;;;;;;-0.30;63.80;;;;;;5074700;28;19920;-70
2023/11/26 05:14:29;;;;;;;;;;;-0.30;63.40;;;;;;5094096;28;19924;-70
2023/11/26 05:16:55;;;;;;;;;;;-0.40;64.20;;;;;;5094517;28;19995;-70
2023/11/26 05:19:21;;;;;;;;;;;-0.30;64.50;;;;;;5076215;28;19938;-70
2023/11/26 05:21:47;;;;;;;;;;;-0.40;64.30;;;;;;5093955;28;19920;-70
2023/11/26 05:24:13;;;;;;;;;;;-0.50;64.20;;;;;;5076269;28;19922;-70
2023/11/26 05:26:40;;;;;;;;;;;-0.50;64.50;;;;;;5076590;28;19923;-73
2023/11/26 05:29:08;;;;;;;;;;;-0.50;64.40;;;;;;5059669;28;19916;-73
2023/11/26 05:31:34;;;;;;;;;;;-0.60;64.50;;;;;;5076237;28;20061;-73
2023/11/26 05:34:00;;;;;;;;;;;-0.60;64.70;;;;;;5059124;28;19916;-71
2023/11/26 05:36:26;;;;;;;;;;;-0.70;64.90;;;;;;5094247;28;20300;-70
2023/11/26 05:38:52;;;;;;;;;;;-0.70;64.40;;;;;;5094349;28;19947;-70
2023/11/26 05:41:18;;;;;;;;;;;-0.70;65.70;;;;;;5075700;28;19931;-71
2023/11/26 05:43:45;;;;;;;;;;;-0.80;64.80;;;;;;5075842;28;20018;-70
2023/11/26 05:46:11;;;;;;;;;;;-0.90;64.80;;;;;;5094555;28;19943;-73
2023/11/26 05:48:37;;;;;;;;;;;-0.90;65.00;;;;;;5094184;28;19920;-70
2023/11/26 05:51:03;;;;;;;;;;;-0.90;65.10;;;;;;5075603;28;19924;-70
2023/11/26 05:53:29;;;;;;;;;;;-1.00;64.40;;;;;;5075561;28;19916;-73
2023/11/26 05:55:55;;;;;;;;;;;-1.00;65.20;;;;;;5075669;28;19942;-73
2023/11/26 05:58:20;;;;;;;;;;;-1.00;65.00;;;;;;5076029;28;20380;-70
2023/11/26 06:00:46;;;;;;;;;;;-1.00;64.90;;;;;;5093413;28;19938;-73
2023/11/26 06:03:12;;;;;;;;;;;-1.10;64.90;;;;;;5059117;28;20339;-70
2023/11/26 06:05:39;;;;;;;;;;;-1.10;64.90;;;;;;5093975;28;19942;-73
2023/11/26 06:08:05;;;;;;;;;;;-1.10;65.10;;;;;;5093843;28;19930;-73
2023/11/26 06:10:32;;;;;;;;;;;-1.20;64.90;;;;;;5051035;28;20344;-73
2023/11/26 06:12:58;;;;;;;;;;;-1.20;65.00;;;;;;5055298;28;20373;-70
2023/11/26 06:15:25;;;;;;;;;;;-1.20;65.00;;;;;;5055715;28;19924;-73
2023/11/26 06:17:51;;;;;;;;;;;-1.20;65.20;;;;;;5073331;28;20293;-70
2023/11/26 06:20:17;;;;;;;;;;;-1.30;65.40;;;;;;5072834;28;19925;-70
2023/11/26 06:22:43;;;;;;;;;;;-1.30;65.20;;;;;;5100421;28;20060;-73
2023/11/26 06:25:12;;;;;;;;;;;-1.30;65.20;;;;;;5095592;28;19923;-71
2023/11/26 06:27:38;;;;;;;;;;;-1.40;64.30;;;;;;5095040;28;19924;-70
2023/11/26 06:30:05;;;;;;;;;;;-1.40;65.00;;;;;;5113411;28;19924;-73
2023/11/26 06:32:31;;;;;;;;;;;-1.40;65.10;;;;;;5095386;28;19915;-70
2023/11/26 06:34:57;;;;;;;;;;;-1.40;65.30;;;;;;5095705;28;19931;-70
2023/11/26 06:37:24;;;;;;;;;;;-1.40;65.10;;;;;;5113507;28;20019;-73
2023/11/26 06:39:50;;;;;;;;;;;-1.40;64.90;;;;;;5078605;28;19924;-73
2023/11/26 06:42:16;;;;;;;;;;;-1.30;65.10;;;;;;5113174;28;20018;-73
2023/11/26 06:44:42;;;;;;;;;;;-1.40;64.20;;;;;;5113714;28;19986;-70
2023/11/26 06:47:08;;;;;;;;;;;-1.30;65.00;;;;;;5095483;28;20439;-70
2023/11/26 06:49:34;;;;;;;;;;;-1.30;65.10;;;;;;5113506;28;19920;-73
2023/11/26 06:51:59;;;;;;;;;;;-1.30;65.10;;;;;;5113152;28;20006;-73
2023/11/26 06:54:25;;;;;;;;;;;-1.30;65.20;;;;;;5112912;28;19920;-71
2023/11/26 06:56:51;;;;;;;;;;;-1.30;65.20;;;;;;5095443;28;20010;-73
2023/11/26 06:59:17;;;;;;;;;;;-1.30;65.40;;;;;;5095238;28;20394;-73
2023/11/26 07:01:43;;;;;;;;;;;-1.20;65.40;;;;;;5094545;28;19928;-72
2023/11/26 07:04:10;;;;;;;;;;;-1.20;65.80;;;;;;5113221;28;19916;-73
2023/11/26 07:06:36;;;;;;;;;;;-1.20;65.80;;;;;;5113374;28;20312;-70
2023/11/26 07:09:06;;;;;;;;;;;-1.20;66.00;;;;;;5113407;28;20350;-73
2023/11/26 07:11:32;;;;;;;;;;;-1.20;65.90;;;;;;5047369;28;19924;-70
2023/11/26 07:13:57;;;;;;;;;;;-1.10;65.90;;;;;;5038049;28;19917;-73
2023/11/26 07:16:23;;;;;;;;;;;-1.10;65.90;;;;;;5054955;28;19927;-73
2023/11/26 07:18:50;;;;;;;;;;;-1.10;65.80;;;;;;5072681;28;20023;-73
2023/11/26 07:21:16;;;;;;;;;;;-1.00;65.60;;;;;;5054074;28;19928;-70
2023/11/26 07:23:42;;;;;;;;;;;-1.00;64.90;;;;;;5054618;28;20381;-70
2023/11/26 07:26:27;;;;;;;;;;;-0.90;65.40;;;;;;5054790;28;20297;-72
2023/11/26 07:28:52;;;;;;;;;;;-0.90;65.40;;;;;;5072584;28;19943;-70
2023/11/26 07:31:20;;;;;;;;;;;-0.80;65.70;;;;;;5053913;28;20389;-72
2023/11/26 07:33:46;;;;;;;;;;;-0.80;65.30;;;;;;5072330;28;19917;-73
2023/11/26 07:36:32;;;;;;;;;;;-0.70;65.30;;;;;;5054564;28;19917;-70
2023/11/26 07:38:58;;;;;;;;;;;-0.70;65.20;;;;;;5056117;28;20288;-70
2023/11/26 07:41:25;;;;;;;;;;;-0.60;65.10;;;;;;5057777;28;20374;-73
2023/11/26 07:43:52;;;;;;;;;;;-0.50;65.50;;;;;;5058322;28;19935;-73
2023/11/26 07:46:19;;;;;;;;;;;-0.50;65.50;;;;;;5058541;28;20292;-73
2023/11/26 07:51:29;;;;;;;;;;;-0.30;64.60;;;;;;5060555;28;19932;-73
2023/11/26 07:53:55;;;;;;;;;;;-0.20;65.10;;;;;;5041226;28;20437;-73
2023/11/26 07:56:21;;;;;;;;;;;-0.10;65.20;;;;;;5076087;28;19921;-70
2023/11/26 07:58:47;;;;;;;;;;;-0.10;65.70;;;;;;5058165;28;19927;-70
2023/11/26 08:01:13;;;;;;;;;;;0.00;65.50;;;;;;5057510;28;19925;-73
2023/11/26 08:03:40;;;;;;;;;;;0.10;65.90;;;;;;5057948;28;19961;-73
2023/11/26 08:06:10;;;;;;;;;;;0.10;67.00;;;;;;5076171;28;19993;-73
2023/11/26 08:08:38;;;;;;;;;;;0.20;65.60;;;;;;5057947;28;19944;-73
2023/11/26 08:11:05;;;;;;;;;;;0.30;65.70;;;;;;5086466;28;20331;-73
2023/11/26 08:13:35;;;;;;;;;;;0.40;64.70;;;;;;5061087;28;19916;-73
2023/11/26 08:16:01;;;;;;;;;;;0.50;65.40;;;;;;5061860;28;20374;-73
2023/11/26 08:18:26;;;;;;;;;;;0.60;64.90;;;;;;5077925;28;19927;-71
2023/11/26 08:24:00;;;;;;;;;;;0.80;64.20;;;;;;5095557;28;19923;-73
2023/11/26 08:26:32;;;;;;;;;;;0.90;63.80;;;;;;5078689;28;19924;-73
2023/11/26 08:28:58;;;;;;;;;;;0.90;63.60;;;;;;5078584;28;19923;-73
2023/11/26 08:31:27;;;;;;;;;;;1.00;62.60;;;;;;5094928;28;19924;-70
2023/11/26 08:33:55;;;;;;;;;;;1.10;62.50;;;;;;5077665;28;19951;-70
2023/11/26 08:36:21;;;;;;;;;;;1.20;62.60;;;;;;5077825;28;19920;-73
2023/11/26 08:38:48;;;;;;;;;;;1.30;62.10;;;;;;5077584;28;19920;-71
2023/11/26 08:41:15;;;;;;;;;;;1.50;62.70;;;;;;5095114;28;19924;-71
2023/11/26 08:43:43;;;;;;;;;;;2.90;60.70;;;;;;5077262;28;19923;-73
2023/11/26 08:46:12;;;;;;;;;;;4.60;56.20;;;;;;5077469;28;20388;-70
2023/11/26 08:48:37;;;;;;;;;;;7.40;49.80;;;;;;5075139;28;20007;-70
2023/11/26 08:51:04;;;;;;;;;;;8.80;45.20;;;;;;5056017;28;19924;-72
2023/11/26 08:53:31;;;;;;;;;;;8.30;44.00;;;;;;5087181;28;19932;-70
2023/11/26 08:55:57;;;;;;;;;;;7.60;45.30;;;;;;5045127;28;19921;-70
2023/11/26 08:58:23;;;;;;;;;;;7.60;46.40;;;;;;5057151;28;19978;-70
2023/11/26 09:00:49;;;;;;;;;;;9.00;43.40;;;;;;5056180;28;20425;-71
2023/11/26 09:03:15;;;;;;;;;;;9.40;41.80;;;;;;5056827;28;19920;-71
2023/11/26 09:05:41;;;;;;;;;;;9.60;41.90;;;;;;5063462;28;19947;-73
2023/11/26 09:08:07;;;;;;;;;;;9.30;42.80;;;;;;5073512;28;19920;-72
2023/11/26 09:10:34;;;;;;;;;;;8.90;44.00;;;;;;5073947;28;20413;-71
2023/11/26 09:13:00;;;;;;;;;;;8.60;44.30;;;;;;5074438;28;20011;-73
2023/11/26 09:15:27;;;;;;;;;;;8.80;44.30;;;;;;5056166;28;19920;-73
2023/11/26 09:17:53;;;;;;;;;;;8.80;42.70;;;;;;5073425;28;19924;-72
2023/11/26 09:20:19;;;;;;;;;;;8.40;44.30;;;;;;5072636;28;20418;-73
2023/11/26 09:22:45;;;;;;;;;;;7.90;45.20;;;;;;5072915;28;20011;-73
2023/11/26 09:27:57;;;;;;;;;;;8.80;43.50;;;;;;5059563;28;19916;-73
2023/11/26 09:30:23;;;;;;;;;;;9.10;42.70;;;;;;5073760;28;20343;-72
2023/11/26 09:32:49;;;;;;;;;;;9.80;39.30;;;;;;5056092;28;19960;-70
2023/11/26 09:35:15;;;;;;;;;;;10.30;38.50;;;;;;5074341;28;19931;-73
2023/11/26 09:37:41;;;;;;;;;;;9.90;38.20;;;;;;5055814;28;19925;-69
2023/11/26 09:40:07;;;;;;;;;;;9.60;38.80;;;;;;5073132;28;19924;-70
2023/11/26 09:42:34;;;;;;;;;;;10.30;37.90;;;;;;5073664;28;19966;-70
2023/11/26 09:45:00;;;;;;;;;;;9.80;37.70;;;;;;5073864;28;19994;-73
2023/11/26 09:47:26;;;;;;;;;;;9.40;38.20;;;;;;5056085;28;20372;-70
2023/11/26 09:49:52;;;;;;;;;;;9.00;38.90;;;;;;5055752;28;20373;-73
2023/11/26 09:52:19;;;;;;;;;;;8.80;39.90;;;;;;5072923;28;19955;-70
2023/11/26 09:54:49;;;;;;;;;;;8.70;40.30;;;;;;5060564;28;19934;-72
2023/11/26 09:57:15;;;;;;;;;;;8.50;41.30;;;;;;5076047;28;20273;-70
2023/11/26 09:59:41;;;;;;;;;;;9.10;38.00;;;;;;5093956;28;19939;-70
2023/11/26 10:02:09;;;;;;;;;;;9.10;38.10;;;;;;5092738;28;19982;-73
2023/11/26 10:04:54;;;;;;;;;;;9.10;39.00;;;;;;5075912;28;20408;-73
2023/11/26 10:07:42;;;;;;;;;;;9.50;36.80;;;;;;5075663;28;20277;-73
2023/11/26 10:10:09;;;;;;;;;;;10.80;35.60;;;;;;5092958;28;20296;-73
2023/11/26 10:13:13;;;;;;;;;;;11.70;34.60;;;;;;5075385;28;19955;-73
2023/11/26 10:15:42;;;;;;;;;;;11.60;33.10;;;;;;5075298;28;20003;-70
2023/11/26 10:18:09;;;;;;;;;;;12.00;32.20;;;;;;5075851;28;19955;-73
2023/11/26 10:23:44;;;;;;;;;;;11.60;31.00;;;;;;5078536;28;19955;-72
2023/11/26 10:26:29;;;;;;;;;;;11.90;30.80;;;;;;5093572;28;19924;-73
2023/11/26 10:29:13;;;;;;;;;;;15.00;26.90;;;;;;5075115;28;20394;-73
2023/11/26 10:32:17;;;;;;;;;;;15.70;25.40;;;;;;5074837;28;19925;-70
2023/11/26 10:34:54;;;;;;;;;;;14.80;26.90;;;;;;5093207;28;19935;-73
2023/11/26 10:37:20;;;;;;;;;;;14.10;27.50;;;;;;5058545;28;19923;-73
2023/11/26 10:39:53;;;;;;;;;;;13.10;29.60;;;;;;5075261;28;19958;-70
2023/11/26 10:42:19;;;;;;;;;;;12.30;30.00;;;;;;5074585;28;19925;-73
2023/11/26 10:44:51;;;;;;;;;;;12.00;31.20;;;;;;5058521;28;19928;-73
2023/11/26 10:47:20;;;;;;;;;;;12.40;28.40;;;;;;5075422;28;19920;-73
2023/11/26 10:50:07;;;;;;;;;;;12.30;28.50;;;;;;5075088;28;19931;-70
2023/11/26 10:52:37;;;;;;;;;;;12.70;28.00;;;;;;5092594;28;20101;-71
2023/11/26 10:55:13;;;;;;;;;;;13.70;28.60;;;;;;5092913;28;19924;-70
2023/11/26 10:57:40;;;;;;;;;;;14.80;25.60;;;;;;5072235;28;20273;-73
2023/11/26 11:00:28;;;;;;;;;;;14.90;26.50;;;;;;5073518;28;19947;-70
2023/11/26 11:02:54;;;;;;;;;;;15.30;25.50;;;;;;5058551;28;19916;-70
2023/11/26 11:08:08;;;;;;;;;;;14.90;25.80;;;;;;5086842;28;19916;-70
2023/11/26 11:11:11;;;;;;;;;;;16.20;25.80;;;;;;5091880;28;20368;-70
2023/11/26 11:13:38;;;;;;;;;;;17.10;24.00;;;;;;5090118;28;19916;-73
2023/11/26 11:16:04;;;;;;;;;;;18.30;22.90;;;;;;5057361;28;20404;-71
2023/11/26 11:18:31;;;;;;;;;;;18.40;22.30;;;;;;5058778;28;19921;-73
2023/11/26 11:20:57;;;;;;;;;;;18.40;22.30;;;;;;5076033;28;20015;-74
2023/11/26 11:23:32;;;;;;;;;;;16.80;22.50;;;;;;5080973;28;20419;-73
2023/11/26 11:26:00;;;;;;;;;;;15.30;24.80;;;;;;5087799;28;19946;-71
2023/11/26 11:28:46;;;;;;;;;;;14.70;26.20;;;;;;5060754;28;20440;-71
2023/11/26 11:31:13;;;;;;;;;;;14.60;26.70;;;;;;5094471;28;19970;-74
2023/11/26 11:33:58;;;;;;;;;;;15.20;26.30;;;;;;5078328;28;19939;-73
2023/11/26 11:36:47;;;;;;;;;;;16.10;23.70;;;;;;5096861;28;20289;-73
2023/11/26 11:39:14;;;;;;;;;;;15.40;24.50;;;;;;5096642;28;19924;-70
2023/11/26 11:41:58;;;;;;;;;;;14.70;24.30;;;;;;5094407;28;20355;-73
2023/11/26 11:44:27;;;;;;;;;;;14.90;25.40;;;;;;5088564;28;19963;-70
2023/11/26 11:46:55;;;;;;;;;;;16.40;23.40;;;;;;5076915;28;20157;-70
2023/11/26 11:49:21;;;;;;;;;;;16.80;23.40;;;;;;5078252;28;19922;-70
2023/11/26 11:51:46;;;;;;;;;;;16.90;21.50;;;;;;5077771;28;20014;-71
2023/11/26 11:54:38;;;;;;;;;;;16.40;22.00;;;;;;5048229;28;19935;-71
2023/11/26 11:57:09;;;;;;;;;;;16.10;22.10;;;;;;5068831;28;19922;-70
2023/11/26 11:59:40;;;;;;;;;;;16.60;22.00;;;;;;5076321;28;20355;-71
2023/11/26 12:02:07;;;;;;;;;;;15.90;22.00;;;;;;5094530;28;19920;-73
2023/11/26 12:04:52;;;;;;;;;;;15.00;23.80;;;;;;5059829;28;19947;-73
2023/11/26 12:07:19;;;;;;;;;;;14.40;24.90;;;;;;5077823;28;19916;-71
2023/11/26 12:09:46;;;;;;;;;;;13.90;24.80;;;;;;5077438;28;20458;-70
2023/11/26 12:12:18;;;;;;;;;;;14.20;25.40;;;;;;5069135;28;19920;-70
2023/11/26 12:14:44;;;;;;;;;;;14.30;26.00;;;;;;5075500;28;19935;-71
2023/11/26 12:17:10;;;;;;;;;;;14.80;25.20;;;;;;5077427;28;19920;-73
2023/11/26 12:19:58;;;;;;;;;;;14.80;24.00;;;;;;5095321;28;20387;-70
2023/11/26 12:22:24;;;;;;;;;;;14.80;23.40;;;;;;5095163;28;19920;-73
2023/11/26 12:24:50;;;;;;;;;;;14.90;24.10;;;;;;5059627;28;19935;-70
2023/11/26 12:27:36;;;;;;;;;;;14.60;24.40;;;;;;5095811;28;20011;-70
2023/11/26 12:30:21;;;;;;;;;;;14.50;24.70;;;;;;5078025;28;19924;-73
2023/11/26 12:32:47;;;;;;;;;;;14.60;24.10;;;;;;5094720;28;19920;-72
2023/11/26 12:35:13;;;;;;;;;;;14.80;24.80;;;;;;5077535;28;20011;-70
2023/11/26 12:37:41;;;;;;;;;;;14.70;23.90;;;;;;5060872;28;19916;-70
2023/11/26 12:40:10;;;;;;;;;;;14.50;23.80;;;;;;5076315;28;19975;-73
2023/11/26 12:42:36;;;;;;;;;;;14.20;23.70;;;;;;5095290;28;19920;-74
2023/11/26 12:45:20;;;;;;;;;;;14.50;23.70;;;;;;5077355;28;19932;-70
2023/11/26 12:48:05;;;;;;;;;;;15.00;23.30;;;;;;5095473;28;19920;-76
2023/11/26 12:50:50;;;;;;;;;;;15.20;22.70;;;;;;5076696;28;19924;-77
2023/11/26 12:53:17;;;;;;;;;;;15.10;22.40;;;;;;5076997;28;20384;-74
2023/11/26 12:55:45;;;;;;;;;;;14.60;22.40;;;;;;5077146;28;19955;-75
2023/11/26 12:58:30;;;;;;;;;;;15.20;22.90;;;;;;5065083;28;20336;-72
2023/11/26 13:00:57;;;;;;;;;;;16.20;22.00;;;;;;5039812;28;19934;-73
2023/11/26 13:03:23;;;;;;;;;;;16.10;20.90;;;;;;5074832;28;19920;-71
2023/11/26 13:05:50;;;;;;;;;;;15.70;22.00;;;;;;5056847;28;19960;-75
2023/11/26 13:08:18;;;;;;;;;;;15.00;22.80;;;;;;5068030;28;20021;-71
2023/11/26 13:10:52;;;;;;;;;;;14.80;22.50;;;;;;5094362;28;19935;-71
2023/11/26 13:13:21;;;;;;;;;;;14.60;23.80;;;;;;5076414;28;20280;-72
2023/11/26 13:15:48;;;;;;;;;;;15.00;23.50;;;;;;5094205;28;19920;-75
2023/11/26 13:18:17;;;;;;;;;;;15.00;23.40;;;;;;5072296;28;20003;-71
2023/11/26 13:23:29;;;;;;;;;;;15.60;23.00;;;;;;5059055;28;19974;-70
2023/11/26 13:25:59;;;;;;;;;;;15.40;23.10;;;;;;5056667;28;19920;-71
2023/11/26 13:28:27;;;;;;;;;;;15.90;22.00;;;;;;5074406;28;19928;-74
2023/11/26 13:30:53;;;;;;;;;;;16.60;21.60;;;;;;5056490;28;19939;-71
2023/11/26 13:33:19;;;;;;;;;;;17.00;20.70;;;;;;5059431;28;20273;-71
2023/11/26 13:35:45;;;;;;;;;;;18.10;19.80;;;;;;5075437;28;19927;-71
2023/11/26 13:38:12;;;;;;;;;;;17.70;19.90;;;;;;5076087;28;19970;-71
2023/11/26 13:40:39;;;;;;;;;;;16.80;20.30;;;;;;5075704;28;19928;-74
2023/11/26 13:43:06;;;;;;;;;;;16.30;21.70;;;;;;5094119;28;19920;-70
2023/11/26 13:45:34;;;;;;;;;;;15.90;22.00;;;;;;5056898;28;19929;-74
2023/11/26 13:48:00;;;;;;;;;;;15.40;22.60;;;;;;5094238;28;19915;-74
2023/11/26 13:50:27;;;;;;;;;;;14.80;23.40;;;;;;5093677;28;19954;-71
2023/11/26 13:52:52;;;;;;;;;;;14.10;23.90;;;;;;5093965;28;19916;-74
2023/11/26 13:55:18;;;;;;;;;;;13.80;24.40;;;;;;5092538;28;19920;-74
2023/11/26 13:57:44;;;;;;;;;;;13.90;24.60;;;;;;5093615;28;20019;-71
2023/11/26 14:00:11;;;;;;;;;;;13.70;24.90;;;;;;5092871;28;20357;-71
2023/11/26 14:02:37;;;;;;;;;;;13.00;25.30;;;;;;5092412;28;19924;-71
2023/11/26 14:05:10;;;;;;;;;;;12.50;26.30;;;;;;5094025;28;19924;-71
2023/11/26 14:07:48;;;;;;;;;;;12.00;27.10;;;;;;5059954;28;20327;-74
2023/11/26 14:10:18;;;;;;;;;;;11.50;29.80;;;;;;5093415;28;19924;-74
2023/11/26 14:13:03;;;;;;;;;;;11.10;31.70;;;;;;5073130;28;19924;-71
2023/11/26 14:15:29;;;;;;;;;;;10.90;33.20;;;;;;5075602;28;19924;-74
2023/11/26 14:17:56;;;;;;;;;;;10.50;34.70;;;;;;5058891;28;19928;-74
2023/11/26 14:20:22;;;;;;;;;;;10.20;35.50;;;;;;5093177;28;19919;-70
2023/11/26 14:23:06;;;;;;;1.98;1.05;;;9.90;36.80;;;;;;5140530;27;20625;-73
2023/11/26 14:25:33;;;;;;;2.15;1.00;;;9.70;36.60;;;;;;5094463;28;20086;-70
2023/11/26 14:27:59;;;;;;;1.55;1.45;;;9.50;37.30;;;;;;5103364;28;20438;-74
2023/11/26 14:30:25;;;;;;;6.22;1.80;;;9.40;37.90;;;;;;5080125;28;20116;-74
2023/11/26 14:32:52;;;;;;;;;;;9.20;39.10;;;;;;5030123;28;20057;-74
2023/11/26 14:35:19;;;;;;;0.50;0.43;;;9.00;38.20;;;;;;5029706;28;20007;-74
2023/11/26 14:37:45;;;;;;;3.63;2.28;;;9.00;38.70;;;;;;5039556;28;20095;-74
2023/11/26 14:40:17;;;;;;;1.45;0.63;;;9.10;38.80;;;;;;5033744;28;20040;-74
2023/11/26 14:42:45;;;;;;;0.50;0.50;;;9.00;38.40;;;;;;5039701;28;20111;-74
2023/11/26 14:45:13;;;;;;;1.42;0.85;;;8.80;38.70;;;;;;5019387;28;20554;-73
2023/11/26 14:47:43;;;;;;;0.20;0.17;;;8.60;39.40;;;;;;5011980;28;20390;-74